Time;durP1;ratioP1;P1;durP2;ratioP2;P2;SDS_P1;SDS_P2;PMS_P1;PMS_P2;Temp;Humidity;BMP_temperature;BMP_pressure;BME280_temperature;BME280_humidity;BME280_pressure;Samples;Min_cycle;Max_cycle;Signal;HPM_P1;HPM_P2
2021/11/10 00:02:01;;;;;;;18.95;10.88;;;2.80;99.90;;;;;;5081088;28;20496;-54
2021/11/10 00:04:26;;;;;;;22.00;11.90;;;2.70;99.90;;;;;;5085604;28;20515;-54
2021/11/10 00:06:52;;;;;;;20.67;11.00;;;2.70;99.90;;;;;;5063343;28;20483;-54
2021/11/10 00:09:18;;;;;;;21.33;11.52;;;2.60;99.90;;;;;;5067035;28;20393;-53
2021/11/10 00:11:45;;;;;;;19.33;11.70;;;3.40;99.90;;;;;;5080669;28;20557;-53
2021/11/10 00:14:10;;;;;;;21.42;12.77;;;2.80;99.90;;;;;;5061948;28;21014;-53
2021/11/10 00:16:37;;;;;;;18.83;11.60;;;2.80;99.90;;;;;;5084494;28;20398;-53
2021/11/10 00:19:03;;;;;;;20.80;11.32;;;2.80;99.90;;;;;;5085181;28;20393;-53
2021/11/10 00:21:29;;;;;;;22.08;11.73;;;2.80;99.90;;;;;;5082449;28;20382;-53
2021/11/10 00:23:56;;;;;;;25.05;11.40;;;2.80;99.90;;;;;;5079031;28;20458;-54
2021/11/10 00:26:22;;;;;;;20.45;12.55;;;3.50;99.90;;;;;;5079982;28;20384;-54
2021/11/10 00:28:49;;;;;;;22.52;11.73;;;2.40;99.90;;;;;;5082089;28;20370;-53
2021/11/10 00:31:16;;;;;;;24.77;11.40;;;2.60;99.90;;;;;;5075011;28;20395;-54
2021/11/10 00:33:41;;;;;;;20.30;12.30;;;2.70;99.90;;;;;;5075180;28;20409;-53
2021/11/10 00:36:09;;;;;;;22.88;11.73;;;3.20;99.90;;;;;;5076286;28;20728;-53
2021/11/10 00:38:35;;;;;;;22.17;11.30;;;2.80;99.90;;;;;;5083354;28;20382;-53
2021/11/10 00:41:01;;;;;;;18.00;10.55;;;2.80;99.90;;;;;;5075131;28;20422;-54
2021/11/10 00:43:27;;;;;;;20.40;11.05;;;2.80;99.90;;;;;;5075873;28;20439;-54
2021/11/10 00:45:53;;;;;;;21.90;11.00;;;2.70;99.90;;;;;;5084540;28;20398;-54
2021/11/10 00:48:18;;;;;;;21.33;11.47;;;3.00;99.90;;;;;;5084022;28;20493;-54
2021/11/10 00:50:44;;;;;;;19.85;10.57;;;2.60;99.90;;;;;;5077905;28;20884;-54
2021/11/10 00:53:10;;;;;;;19.45;11.18;;;3.00;99.90;;;;;;5073695;28;20443;-53
2021/11/10 00:55:36;;;;;;;18.97;10.67;;;2.50;99.90;;;;;;5077827;28;20482;-54
2021/11/10 00:58:03;;;;;;;16.60;10.00;;;3.80;99.90;;;;;;5084460;28;20394;-54
2021/11/10 01:00:29;;;;;;;21.92;11.00;;;3.60;99.90;;;;;;5079800;28;20384;-54
2021/11/10 01:02:56;;;;;;;19.55;10.30;;;2.60;99.90;;;;;;5078808;28;20402;-54
2021/11/10 01:05:21;;;;;;;19.00;10.80;;;2.80;99.90;;;;;;5074199;28;20398;-54
2021/11/10 01:07:47;;;;;;;18.02;10.05;;;2.80;99.90;;;;;;5061013;28;20387;-53
2021/11/10 01:10:14;;;;;;;23.17;10.87;;;3.00;99.90;;;;;;5076648;28;20905;-54
2021/11/10 01:12:40;;;;;;;20.30;10.38;;;2.90;99.90;;;;;;5078913;28;20423;-53
2021/11/10 01:15:08;;;;;;;19.60;10.90;;;3.00;99.90;;;;;;5080003;28;20454;-53
2021/11/10 01:17:34;;;;;;;18.53;10.93;;;2.90;99.90;;;;;;5074996;28;20389;-53
2021/11/10 01:20:00;;;;;;;18.83;10.53;;;2.90;99.90;;;;;;5082876;28;20774;-53
2021/11/10 01:22:25;;;;;;;20.40;10.43;;;2.80;99.90;;;;;;5080617;28;20453;-53
2021/11/10 01:24:51;;;;;;;21.38;10.90;;;2.90;99.90;;;;;;5081961;28;20385;-53
2021/11/10 01:27:17;;;;;;;17.10;10.07;;;2.90;99.90;;;;;;5078160;28;20479;-53
2021/11/10 01:29:44;;;;;;;17.33;9.83;;;2.90;99.90;;;;;;5062784;28;20910;-53
2021/11/10 01:32:10;;;;;;;17.50;9.20;;;2.90;99.90;;;;;;5079958;28;20386;-53
2021/11/10 01:34:36;;;;;;;18.43;9.97;;;2.90;99.90;;;;;;5077630;28;20420;-53
2021/11/10 01:37:02;;;;;;;21.30;10.48;;;2.90;99.90;;;;;;5077496;28;20394;-53
2021/11/10 01:39:28;;;;;;;19.92;10.20;;;2.90;99.90;;;;;;5085054;28;20419;-53
2021/11/10 01:42:02;;;;;;;19.45;10.20;;;2.90;99.90;;;;;;5090275;28;20429;-53
2021/11/10 01:44:30;;;;;;;17.73;9.30;;;2.90;99.90;;;;;;5090223;28;20405;-53
2021/11/10 01:46:57;;;;;;;18.00;9.75;;;3.00;99.90;;;;;;5090489;28;20400;-53
2021/11/10 01:49:23;;;;;;;22.67;11.20;;;2.90;99.90;;;;;;5090045;28;20378;-53
2021/11/10 01:51:53;;;;;;;18.63;10.17;;;3.80;99.90;;;;;;5090479;28;20405;-53
2021/11/10 01:54:21;;;;;;;20.15;10.73;;;2.90;99.90;;;;;;5089429;28;20410;-53
2021/11/10 01:56:47;;;;;;;22.27;10.88;;;2.80;99.90;;;;;;5090231;28;20861;-53
2021/11/10 01:59:32;;;;;;;21.37;10.90;;;3.20;99.90;;;;;;5089420;28;20419;-53
2021/11/10 02:01:59;;;;;;;20.60;11.35;;;2.90;99.90;;;;;;5090035;28;20946;-53
2021/11/10 02:04:29;;;;;;;24.33;11.60;;;2.90;99.90;;;;;;5086657;28;20398;-53
2021/11/10 02:06:55;;;;;;;19.92;11.30;;;3.20;99.90;;;;;;5090288;28;20381;-53
2021/11/10 02:09:23;;;;;;;18.63;10.50;;;3.20;99.90;;;;;;5089551;28;20382;-53
2021/11/10 02:11:50;;;;;;;20.58;11.23;;;2.90;99.90;;;;;;5074420;28;20399;-53
2021/11/10 02:14:21;;;;;;;19.50;11.37;;;2.90;99.90;;;;;;5069246;28;20403;-53
2021/11/10 02:16:47;;;;;;;22.40;11.77;;;2.90;99.90;;;;;;5069901;28;20411;-53
2021/11/10 02:19:14;;;;;;;19.10;11.40;;;2.90;99.90;;;;;;5069099;28;20388;-54
2021/11/10 02:21:51;;;;;;;20.25;11.77;;;2.90;99.90;;;;;;5069531;28;20486;-53
2021/11/10 02:24:17;;;;;;;23.85;12.15;;;2.90;99.90;;;;;;5069321;28;20387;-53
2021/11/10 02:26:44;;;;;;;23.67;12.52;;;2.80;99.90;;;;;;5069826;28;20430;-54
2021/11/10 02:29:21;;;;;;;21.77;11.77;;;2.70;99.90;;;;;;5050954;28;20394;-53
2021/11/10 02:31:47;;;;;;;20.60;11.07;;;2.60;99.90;;;;;;5069781;28;20825;-53
2021/11/10 02:34:13;;;;;;;23.48;11.07;;;2.60;99.90;;;;;;5068989;28;20423;-53
2021/11/10 02:36:39;;;;;;;19.43;10.90;;;2.60;99.90;;;;;;5069292;28;20888;-53
2021/11/10 02:39:10;;;;;;;19.40;11.13;;;4.10;99.90;;;;;;5068960;28;20372;-55
2021/11/10 02:41:37;;;;;;;21.33;11.88;;;2.60;99.90;;;;;;5069968;28;20399;-53
2021/11/10 02:44:05;;;;;;;25.48;12.90;;;1.00;99.90;;;;;;5069248;28;20388;-54
2021/11/10 02:46:35;;;;;;;24.13;12.95;;;2.50;99.90;;;;;;5069553;28;20444;-53
2021/11/10 02:49:00;;;;;;;21.58;13.07;;;2.60;99.90;;;;;;5069634;28;20417;-53
2021/11/10 02:51:26;;;;;;;26.63;13.57;;;4.00;99.90;;;;;;5068768;28;20404;-53
2021/11/10 02:53:52;;;;;;;29.73;14.63;;;2.60;99.90;;;;;;5071877;28;20490;-53
2021/11/10 02:56:18;;;;;;;26.10;14.43;;;2.60;99.90;;;;;;5072701;28;20478;-53
2021/11/10 02:58:44;;;;;;;25.73;13.93;;;2.60;99.90;;;;;;5073573;28;20429;-53
2021/11/10 03:01:10;;;;;;;24.17;13.70;;;2.60;99.90;;;;;;5072436;28;20864;-53
2021/11/10 03:03:35;;;;;;;27.45;14.80;;;2.60;99.90;;;;;;5054658;28;20380;-53
2021/11/10 03:06:01;;;;;;;26.20;14.43;;;3.20;99.90;;;;;;5073534;28;20862;-53
2021/11/10 03:08:27;;;;;;;25.58;14.65;;;2.50;99.90;;;;;;5072458;28;20375;-54
2021/11/10 03:10:53;;;;;;;23.95;13.65;;;3.40;99.90;;;;;;5073092;28;20438;-53
2021/11/10 03:13:18;;;;;;;30.15;14.10;;;2.50;99.90;;;;;;5071269;28;20930;-53
2021/11/10 03:15:46;;;;;;;23.57;13.50;;;2.60;99.90;;;;;;5073475;28;20401;-54
2021/11/10 03:18:12;;;;;;;26.97;14.43;;;2.70;99.90;;;;;;5072327;28;20433;-54
2021/11/10 03:20:38;;;;;;;25.33;14.88;;;2.60;99.90;;;;;;5073132;28;20372;-53
2021/11/10 03:23:05;;;;;;;24.80;14.23;;;2.70;99.90;;;;;;5072945;28;20386;-54
2021/11/10 03:25:31;;;;;;;25.13;13.32;;;2.70;99.90;;;;;;5072895;28;20465;-53
2021/11/10 03:27:57;;;;;;;26.50;13.43;;;2.60;99.90;;;;;;5073287;28;20867;-53
2021/11/10 03:30:23;;;;;;;27.63;14.13;;;2.60;99.90;;;;;;5072086;28;20372;-54
2021/11/10 03:32:51;;;;;;;21.50;13.85;;;2.60;99.90;;;;;;5072766;28;20380;-53
2021/11/10 03:35:19;;;;;;;26.40;14.90;;;2.60;99.90;;;;;;5072227;28;20383;-54
2021/11/10 03:37:45;;;;;;;22.57;13.70;;;2.70;99.90;;;;;;5072705;28;20376;-53
2021/11/10 03:40:12;;;;;;;24.90;13.85;;;2.60;99.90;;;;;;5071624;28;20478;-53
2021/11/10 03:42:38;;;;;;;28.25;14.50;;;2.50;99.90;;;;;;5072404;28;20496;-53
2021/11/10 03:45:05;;;;;;;27.05;14.88;;;2.50;99.90;;;;;;5072348;28;20379;-53
2021/11/10 03:47:30;;;;;;;23.30;14.05;;;2.60;99.90;;;;;;5071625;28;20449;-53
2021/11/10 03:49:56;;;;;;;22.65;14.32;;;2.60;99.90;;;;;;5072524;28;20371;-53
2021/11/10 03:52:22;;;;;;;35.47;17.70;;;2.50;99.90;;;;;;5071401;28;20372;-53
2021/11/10 03:54:48;;;;;;;34.00;16.95;;;2.60;99.90;;;;;;5072359;28;20472;-53
2021/11/10 03:57:14;;;;;;;35.08;19.13;;;2.80;99.90;;;;;;5053343;28;20490;-53
2021/11/10 03:59:40;;;;;;;30.92;15.40;;;2.80;99.90;;;;;;5072242;28;20383;-53
2021/11/10 04:02:10;;;;;;;26.40;14.85;;;2.80;99.90;;;;;;5072100;28;20387;-54
2021/11/10 04:04:36;;;;;;;24.65;13.95;;;2.60;99.90;;;;;;5071860;28;20801;-53
2021/11/10 04:07:02;;;;;;;26.70;14.57;;;3.10;99.90;;;;;;5071850;28;20508;-53
2021/11/10 04:09:27;;;;;;;26.70;15.02;;;2.50;99.90;;;;;;5071055;28;20470;-53
2021/11/10 04:11:54;;;;;;;30.88;15.70;;;2.70;99.90;;;;;;5087408;28;20820;-53
2021/11/10 04:14:20;;;;;;;24.47;14.50;;;2.60;99.90;;;;;;5091271;28;20446;-53
2021/11/10 04:16:45;;;;;;;27.27;14.40;;;4.20;99.90;;;;;;5092206;28;20520;-53
2021/11/10 04:19:11;;;;;;;26.23;13.55;;;2.50;99.90;;;;;;5091493;28;20481;-54
2021/11/10 04:21:37;;;;;;;24.67;13.73;;;2.50;99.90;;;;;;5073992;28;20417;-53
2021/11/10 04:24:04;;;;;;;26.95;14.60;;;2.60;99.90;;;;;;5091953;28;20382;-53
2021/11/10 04:26:40;;;;;;;24.88;14.48;;;2.50;99.90;;;;;;5090904;28;20947;-53
2021/11/10 04:29:07;;;;;;;27.00;14.60;;;2.40;99.90;;;;;;5091086;28;20381;-54
2021/11/10 04:31:33;;;;;;;23.73;13.47;;;2.30;99.90;;;;;;5071089;28;20539;-53
2021/11/10 04:34:00;;;;;;;29.50;13.80;;;2.20;99.90;;;;;;5071596;28;20496;-53
2021/11/10 04:36:31;;;;;;;29.85;14.45;;;2.10;99.90;;;;;;5070854;28;20384;-53
2021/11/10 04:38:57;;;;;;;26.30;14.45;;;3.30;99.90;;;;;;5071554;28;20430;-54
2021/11/10 04:41:25;;;;;;;26.75;14.70;;;3.20;99.90;;;;;;5090156;28;20428;-53
2021/11/10 04:43:53;;;;;;;28.67;15.65;;;1.90;99.90;;;;;;5091740;28;20408;-53
2021/11/10 04:46:31;;;;;;;29.27;15.65;;;1.80;99.90;;;;;;5090573;28;20382;-54
2021/11/10 04:48:57;;;;;;;29.58;15.40;;;2.30;99.90;;;;;;5091460;28;20378;-53
2021/11/10 04:51:24;;;;;;;26.77;14.63;;;1.80;99.90;;;;;;5071852;28;20812;-53
2021/11/10 04:53:50;;;;;;;25.52;14.20;;;1.80;99.90;;;;;;5091107;28;20420;-53
2021/11/10 04:56:16;;;;;;;27.38;15.43;;;1.80;99.90;;;;;;5090372;28;20439;-54
2021/11/10 04:58:43;;;;;;;26.27;13.40;;;2.10;99.90;;;;;;5091479;28;20431;-53
2021/11/10 05:01:27;;;;;;;28.60;14.68;;;1.80;99.90;;;;;;5072982;28;20474;-53
2021/11/10 05:03:56;;;;;;;25.05;14.02;;;1.80;99.90;;;;;;5087948;28;20398;-53
2021/11/10 05:06:23;;;;;;;28.60;15.85;;;2.70;99.90;;;;;;5090336;28;20477;-53
2021/11/10 05:08:49;;;;;;;28.65;15.25;;;2.00;99.90;;;;;;5090973;28;20382;-54
2021/11/10 05:11:14;;;;;;;28.25;13.98;;;2.00;99.90;;;;;;5078804;28;20757;-54
2021/11/10 05:13:40;;;;;;;28.50;15.03;;;2.10;99.90;;;;;;5070800;28;20529;-53
2021/11/10 05:16:06;;;;;;;28.50;14.97;;;2.10;99.90;;;;;;5070233;28;20384;-53
2021/11/10 05:18:32;;;;;;;25.85;14.40;;;2.10;99.90;;;;;;5069988;28;20382;-53
2021/11/10 05:20:58;;;;;;;29.40;14.00;;;3.20;99.90;;;;;;5078209;28;20390;-54
2021/11/10 05:23:23;;;;;;;26.38;14.05;;;2.20;99.90;;;;;;5080350;28;20392;-53
2021/11/10 05:25:50;;;;;;;27.20;14.63;;;2.30;99.90;;;;;;5062004;28;20396;-53
2021/11/10 05:28:16;;;;;;;26.20;13.50;;;2.20;99.90;;;;;;5078970;28;20386;-54
2021/11/10 05:30:42;;;;;;;24.38;12.60;;;2.70;99.90;;;;;;5081312;28;20389;-53
2021/11/10 05:33:08;;;;;;;32.92;14.93;;;2.10;99.90;;;;;;5079445;28;20394;-53
2021/11/10 05:35:34;;;;;;;29.35;13.70;;;3.50;99.90;;;;;;5073331;28;20953;-53
2021/11/10 05:38:00;;;;;;;24.70;14.13;;;2.10;99.90;;;;;;5072946;28;20386;-53
2021/11/10 05:40:26;;;;;;;25.55;14.30;;;3.30;99.90;;;;;;5089196;28;20458;-53
2021/11/10 05:42:51;;;;;;;26.92;14.25;;;1.90;99.90;;;;;;5090239;28;20382;-53
2021/11/10 05:45:17;;;;;;;23.20;13.37;;;1.90;99.90;;;;;;5089570;28;20377;-54
2021/11/10 05:47:43;;;;;;;28.35;14.50;;;2.00;99.90;;;;;;5090160;28;20487;-53
2021/11/10 05:50:09;;;;;;;29.92;15.48;;;3.60;99.90;;;;;;5090190;28;20382;-53
2021/11/10 05:52:37;;;;;;;29.40;14.70;;;3.10;99.90;;;;;;5089343;28;20370;-53
2021/11/10 05:55:04;;;;;;;25.33;14.38;;;3.00;99.90;;;;;;5090225;28;20397;-53
2021/11/10 05:57:31;;;;;;;27.38;14.75;;;2.00;99.90;;;;;;5085866;28;20417;-54
2021/11/10 05:59:56;;;;;;;25.97;14.50;;;2.00;99.90;;;;;;5090060;28;20501;-53
2021/11/10 06:02:22;;;;;;;27.87;14.40;;;1.90;99.90;;;;;;5089342;28;20880;-51
2021/11/10 06:04:49;;;;;;;27.58;14.50;;;1.80;99.90;;;;;;5090068;28;20735;-54
2021/11/10 06:07:14;;;;;;;24.33;13.82;;;1.80;99.90;;;;;;5071945;28;20747;-54
2021/11/10 06:09:41;;;;;;;26.52;14.25;;;1.80;99.90;;;;;;5088708;28;20398;-53
2021/11/10 06:12:07;;;;;;;27.67;13.57;;;3.00;99.90;;;;;;5067281;28;20981;-54
2021/11/10 06:14:33;;;;;;;27.50;14.38;;;1.90;99.90;;;;;;5063441;28;20419;-53
2021/11/10 06:16:59;;;;;;;30.02;14.98;;;3.60;99.90;;;;;;5057824;28;20735;-53
2021/11/10 06:19:26;;;;;;;27.93;14.07;;;1.80;99.90;;;;;;5053104;28;20385;-53
2021/11/10 06:21:52;;;;;;;29.05;15.65;;;1.80;99.90;;;;;;5058601;28;20806;-54
2021/11/10 06:24:20;;;;;;;31.65;15.57;;;1.80;99.90;;;;;;5054032;28;20855;-54
2021/11/10 06:26:47;;;;;;;32.90;15.45;;;1.80;99.90;;;;;;5049222;28;20382;-54
2021/11/10 06:29:12;;;;;;;32.57;17.67;;;1.90;99.90;;;;;;5049023;28;20385;-53
2021/11/10 06:31:38;;;;;;;30.40;17.90;;;2.00;99.90;;;;;;5048672;28;20385;-53
2021/11/10 06:34:04;;;;;;;29.63;16.20;;;2.00;99.90;;;;;;5064740;28;20404;-54
2021/11/10 06:36:30;;;;;;;29.90;16.20;;;1.90;99.90;;;;;;5068448;28;20411;-53
2021/11/10 06:38:56;;;;;;;28.10;15.55;;;1.90;99.90;;;;;;5069437;28;20433;-53
2021/11/10 06:41:22;;;;;;;28.17;15.32;;;1.90;99.90;;;;;;5068421;28;20391;-54
2021/11/10 06:43:49;;;;;;;29.57;15.73;;;2.00;99.90;;;;;;5069419;28;20753;-53
2021/11/10 06:46:15;;;;;;;31.50;16.20;;;3.30;99.90;;;;;;5069121;28;20371;-53
2021/11/10 06:48:41;;;;;;;35.00;17.93;;;1.90;99.90;;;;;;5068620;28;20386;-53
2021/11/10 06:51:06;;;;;;;30.13;16.60;;;2.00;99.90;;;;;;5069310;28;20388;-54
2021/11/10 06:53:33;;;;;;;34.63;17.97;;;2.10;99.90;;;;;;5067320;28;20400;-53
2021/11/10 06:55:58;;;;;;;30.03;17.90;;;2.10;99.90;;;;;;5069730;28;20581;-53
2021/11/10 06:58:24;;;;;;;35.63;17.90;;;3.30;99.90;;;;;;5069079;28;20838;-54
2021/11/10 07:00:50;;;;;;;28.05;16.00;;;2.40;99.90;;;;;;5069190;28;20399;-54
2021/11/10 07:03:15;;;;;;;25.03;15.13;;;3.10;99.90;;;;;;5067593;28;20729;-54
2021/11/10 07:05:42;;;;;;;27.73;15.70;;;2.80;99.90;;;;;;5033373;28;20393;-53
2021/11/10 07:08:08;;;;;;;29.77;14.70;;;3.00;99.90;;;;;;5056782;28;20385;-54
2021/11/10 07:10:34;;;;;;;29.25;15.05;;;3.10;99.90;;;;;;5067988;28;20502;-54
2021/11/10 07:12:59;;;;;;;28.10;14.73;;;3.30;99.90;;;;;;5088923;28;20751;-53
2021/11/10 07:15:25;;;;;;;27.52;15.98;;;3.50;99.90;;;;;;5068622;28;20384;-53
2021/11/10 07:17:52;;;;;;;28.17;14.70;;;5.20;99.90;;;;;;5069647;28;20380;-53
2021/11/10 07:20:18;;;;;;;26.02;14.43;;;3.70;99.90;;;;;;5069087;28;20383;-54
2021/11/10 07:22:44;;;;;;;27.20;15.27;;;4.20;99.90;;;;;;5077337;28;20486;-54
2021/11/10 07:25:10;;;;;;;27.60;14.70;;;4.10;99.90;;;;;;5087809;28;20498;-53
2021/11/10 07:27:35;;;;;;;25.23;15.00;;;4.00;99.90;;;;;;5088707;28;20505;-53
2021/11/10 07:30:04;;;;;;;27.47;15.17;;;3.80;99.90;;;;;;5089315;28;20443;-53
2021/11/10 07:32:30;;;;;;;29.27;15.63;;;3.90;99.90;;;;;;5088303;28;20914;-54
2021/11/10 07:34:55;;;;;;;26.07;14.53;;;4.20;99.90;;;;;;5086874;28;20404;-53
2021/11/10 07:37:21;;;;;;;24.98;14.45;;;4.90;99.90;;;;;;5088267;28;20452;-53
2021/11/10 07:39:47;;;;;;;26.13;15.13;;;5.60;99.90;;;;;;5089609;28;20406;-51
2021/11/10 07:42:13;;;;;;;25.40;14.95;;;5.80;99.90;;;;;;5092671;28;20389;-51
2021/11/10 07:44:40;;;;;;;26.23;15.40;;;6.10;99.90;;;;;;5091783;28;20385;-52
2021/11/10 07:47:17;;;;;;;24.15;13.90;;;6.20;99.90;;;;;;5092643;28;20430;-51
2021/11/10 07:49:46;;;;;;;27.50;14.87;;;6.40;99.90;;;;;;5091927;28;20417;-52
2021/11/10 07:52:13;;;;;;;23.92;14.48;;;7.00;99.90;;;;;;5092537;28;20378;-53
2021/11/10 07:54:39;;;;;;;23.55;14.15;;;7.80;99.90;;;;;;5073673;28;20477;-53
2021/11/10 07:57:05;;;;;;;22.67;13.90;;;8.60;99.90;;;;;;5092569;28;20572;-53
2021/11/10 07:59:31;;;;;;;25.42;14.20;;;9.10;99.90;;;;;;5091548;28;20398;-53
2021/11/10 08:01:57;;;;;;;22.77;14.80;;;9.40;99.90;;;;;;5092131;28;20392;-53
2021/11/10 08:04:22;;;;;;;23.80;14.70;;;9.70;99.90;;;;;;5073824;28;20759;-55
2021/11/10 08:06:48;;;;;;;27.27;15.10;;;10.10;99.90;;;;;;5092108;28;20839;-53
2021/11/10 08:09:14;;;;;;;22.90;15.95;;;10.30;99.90;;;;;;5092416;28;20381;-53
2021/11/10 08:11:39;;;;;;;29.20;15.73;;;10.50;99.90;;;;;;5091073;28;20417;-53
2021/11/10 08:14:06;;;;;;;24.92;15.93;;;10.50;99.90;;;;;;5092008;28;20413;-53
2021/11/10 08:16:32;;;;;;;23.52;15.23;;;10.50;99.90;;;;;;5091726;28;20475;-53
2021/11/10 08:18:57;;;;;;;27.00;16.37;;;10.60;99.90;;;;;;5092384;28;20448;-53
2021/11/10 08:21:23;;;;;;;22.77;14.68;;;10.80;99.90;;;;;;5073122;28;20389;-55
2021/11/10 08:23:49;;;;;;;24.30;14.53;;;10.70;99.90;;;;;;5091852;28;20473;-54
2021/11/10 08:26:15;;;;;;;24.75;15.95;;;10.50;99.90;;;;;;5091073;28;20394;-54
2021/11/10 08:28:41;;;;;;;24.40;14.75;;;10.60;99.90;;;;;;5056288;28;20414;-53
2021/11/10 08:31:07;;;;;;;25.48;15.32;;;10.90;99.90;;;;;;5053467;28;20484;-53
2021/11/10 08:33:32;;;;;;;27.60;15.50;;;11.20;99.90;;;;;;5070576;28;20417;-53
2021/11/10 08:35:59;;;;;;;24.67;14.85;;;12.10;99.90;;;;;;5071523;28;20375;-53
2021/11/10 08:38:29;;;;;;;24.70;15.95;;;12.20;99.90;;;;;;5071031;28;20415;-55
2021/11/10 08:40:56;;;;;;;23.27;15.00;;;12.10;99.90;;;;;;5075978;28;20477;-53
2021/11/10 08:43:23;;;;;;;25.25;15.10;;;11.90;99.90;;;;;;5071536;28;20740;-52
2021/11/10 08:45:53;;;;;;;27.17;15.15;;;11.40;99.90;;;;;;5091182;28;20440;-52
2021/11/10 08:48:20;;;;;;;27.30;16.00;;;11.00;99.90;;;;;;5091848;28;20393;-53
2021/11/10 08:50:46;;;;;;;22.38;15.45;;;10.40;99.90;;;;;;5089851;28;20507;-54
2021/11/10 08:53:18;;;;;;;24.17;16.33;;;10.10;99.90;;;;;;5089706;28;20435;-53
2021/11/10 08:55:54;;;;;;;23.57;14.00;;;9.90;99.90;;;;;;5090905;28;20465;-53
2021/11/10 08:58:20;;;;;;;25.43;14.47;;;9.80;99.90;;;;;;5085192;28;20424;-53
2021/11/10 09:00:47;;;;;;;23.02;15.30;;;9.90;99.90;;;;;;5090802;28;20366;-53
2021/11/10 09:03:14;;;;;;;25.50;15.73;;;10.20;99.90;;;;;;5091344;28;20421;-54
2021/11/10 09:05:40;;;;;;;25.10;15.40;;;10.40;99.90;;;;;;5090779;28;20374;-54
2021/11/10 09:08:05;;;;;;;24.02;14.60;;;10.30;99.90;;;;;;5091140;28;20375;-54
2021/11/10 09:10:34;;;;;;;21.60;14.77;;;10.40;99.90;;;;;;5089915;28;20398;-54
2021/11/10 09:13:01;;;;;;;23.00;15.27;;;9.90;99.90;;;;;;5089335;28;20469;-54
2021/11/10 09:15:27;;;;;;;23.23;14.95;;;9.20;99.90;;;;;;5070934;28;20388;-55
2021/11/10 09:17:53;;;;;;;25.30;15.65;;;8.50;99.90;;;;;;5070695;28;20388;-54
2021/11/10 09:20:22;;;;;;;25.23;15.10;;;8.20;99.90;;;;;;5071032;28;20383;-53
2021/11/10 09:22:48;;;;;;;24.85;15.20;;;8.00;99.90;;;;;;5069612;28;20376;-53
2021/11/10 09:25:17;;;;;;;23.98;14.40;;;7.60;99.90;;;;;;5071618;28;20388;-51
2021/11/10 09:27:43;;;;;;;26.95;15.40;;;7.30;99.90;;;;;;5085268;28;20378;-51
2021/11/10 09:30:15;;;;;;;26.10;14.98;;;7.30;99.90;;;;;;5090595;28;20674;-51
2021/11/10 09:32:41;;;;;;;28.70;14.27;;;7.30;99.90;;;;;;5089542;28;20981;-52
2021/11/10 09:35:10;;;;;;;24.38;14.40;;;7.20;99.90;;;;;;5083231;28;20497;-52
2021/11/10 09:37:37;;;;;;;24.75;15.13;;;7.30;99.90;;;;;;5080403;28;20442;-52
2021/11/10 09:40:05;;;;;;;27.67;15.20;;;7.50;99.90;;;;;;5085287;28;20542;-52
2021/11/10 09:42:32;;;;;;;28.80;16.35;;;7.80;99.90;;;;;;5080517;28;20378;-54
2021/11/10 09:44:59;;;;;;;28.50;16.20;;;8.30;99.90;;;;;;5090818;28;20386;-53
2021/11/10 09:47:25;;;;;;;26.40;14.90;;;8.30;99.90;;;;;;5089784;28;20431;-53
2021/11/10 09:49:51;;;;;;;28.08;15.75;;;8.20;99.90;;;;;;5089710;28;20948;-53
2021/11/10 09:52:18;;;;;;;28.17;16.13;;;8.10;99.90;;;;;;5090500;28;20378;-53
2021/11/10 09:54:45;;;;;;;26.95;16.52;;;8.20;99.90;;;;;;5089568;28;20505;-53
2021/11/10 09:57:10;;;;;;;25.43;15.60;;;8.30;99.90;;;;;;5072284;28;20383;-53
2021/11/10 09:59:37;;;;;;;26.35;15.27;;;8.40;99.90;;;;;;5088910;28;20386;-53
2021/11/10 10:02:05;;;;;;;27.73;16.42;;;8.10;99.90;;;;;;5071878;28;20382;-53
2021/11/10 10:04:31;;;;;;;28.77;15.85;;;8.10;99.90;;;;;;5089665;28;20393;-54
2021/11/10 10:06:57;;;;;;;25.30;16.00;;;8.30;99.90;;;;;;5072221;28;20385;-53
2021/11/10 10:09:23;;;;;;;28.05;16.63;;;8.60;99.90;;;;;;5089903;28;20410;-53
2021/11/10 10:11:49;;;;;;;27.50;16.23;;;8.80;99.90;;;;;;5088687;28;21037;-54
2021/11/10 10:14:15;;;;;;;29.75;17.10;;;9.10;99.90;;;;;;5059527;28;20495;-54
2021/11/10 10:16:40;;;;;;;25.83;16.33;;;9.30;99.90;;;;;;5051232;28;20392;-54
2021/11/10 10:19:08;;;;;;;34.03;18.43;;;9.30;99.90;;;;;;5069735;28;20383;-54
2021/11/10 10:21:35;;;;;;;32.90;17.33;;;9.30;99.90;;;;;;5068971;28;20391;-54
2021/11/10 10:24:02;;;;;;;30.90;17.95;;;9.30;99.90;;;;;;5080615;28;20398;-54
2021/11/10 10:26:28;;;;;;;31.27;17.90;;;9.10;99.90;;;;;;5089820;28;20373;-54
2021/11/10 10:28:58;;;;;;;30.83;18.38;;;9.10;99.90;;;;;;5089336;28;20382;-53
2021/11/10 10:31:27;;;;;;;31.05;18.55;;;8.80;99.90;;;;;;5089366;28;20385;-54
2021/11/10 10:33:56;;;;;;;33.05;17.27;;;8.60;99.90;;;;;;5087083;28;20955;-53
2021/11/10 10:36:24;;;;;;;33.05;18.58;;;8.80;99.90;;;;;;5071640;28;20715;-54
2021/11/10 10:38:52;;;;;;;28.42;17.95;;;8.90;99.90;;;;;;5088815;28;20443;-55
2021/11/10 10:41:29;;;;;;;33.37;18.73;;;8.90;99.90;;;;;;5088815;28;20430;-55
2021/11/10 10:44:01;;;;;;;31.80;17.27;;;9.20;99.90;;;;;;5089459;28;20393;-55
2021/11/10 10:46:29;;;;;;;33.55;18.17;;;9.20;99.90;;;;;;5089561;28;20503;-55
2021/11/10 10:49:15;;;;;;;30.02;17.35;;;9.20;99.90;;;;;;5088707;28;20370;-55
2021/11/10 10:52:05;;;;;;;30.83;17.92;;;9.30;99.90;;;;;;5088923;28;20378;-54
2021/11/10 10:54:31;;;;;;;28.93;18.50;;;9.30;99.90;;;;;;5075709;28;20623;-55
2021/11/10 10:56:59;;;;;;;28.65;17.60;;;9.60;99.90;;;;;;5088871;28;20468;-54
2021/11/10 10:59:26;;;;;;;27.67;18.02;;;9.70;99.90;;;;;;5089541;28;20485;-54
2021/11/10 11:01:54;;;;;;;31.35;18.48;;;9.70;99.90;;;;;;5088725;28;20389;-54
2021/11/10 11:04:28;;;;;;;28.98;17.15;;;9.70;99.90;;;;;;5089411;28;20847;-54
2021/11/10 11:07:06;;;;;;;34.75;20.27;;;9.90;99.90;;;;;;5089138;28;20410;-55
2021/11/10 11:09:52;;;;;;;27.95;18.17;;;10.00;99.90;;;;;;5088973;28;20393;-55
2021/11/10 11:12:31;;;;;;;31.08;18.17;;;10.00;99.90;;;;;;5089448;28;20410;-53
2021/11/10 11:15:24;;;;;;;30.20;19.25;;;10.30;99.90;;;;;;5073338;28;20462;-55
2021/11/10 11:17:52;;;;;;;29.50;18.48;;;10.20;99.90;;;;;;5072080;28;20423;-52
2021/11/10 11:20:20;;;;;;;32.63;20.47;;;10.30;99.90;;;;;;5073048;28;20375;-55
2021/11/10 11:22:45;;;;;;;36.10;20.15;;;10.20;99.90;;;;;;5072146;28;20792;-55
2021/11/10 11:25:26;;;;;;;30.20;18.27;;;10.30;99.90;;;;;;5072645;28;20388;-53
2021/11/10 11:28:06;;;;;;;34.50;20.33;;;10.90;99.90;;;;;;5054081;28;20798;-53
2021/11/10 11:30:41;;;;;;;32.40;18.95;;;11.30;99.90;;;;;;5054676;28;20453;-53
2021/11/10 11:33:18;;;;;;;34.47;19.05;;;11.40;99.90;;;;;;5081343;28;20406;-54
2021/11/10 11:35:46;;;;;;;29.45;17.50;;;10.50;99.90;;;;;;5092319;28;20873;-54
2021/11/10 11:38:20;;;;;;;31.25;20.02;;;10.80;99.90;;;;;;5074580;28;20394;-54
2021/11/10 11:40:51;;;;;;;31.23;18.85;;;10.60;99.90;;;;;;5091723;28;20385;-54
2021/11/10 11:43:22;;;;;;;32.15;19.65;;;10.80;99.90;;;;;;5092577;28;20396;-55
2021/11/10 11:45:50;;;;;;;31.88;17.83;;;11.00;99.90;;;;;;5092260;28;20377;-53
2021/11/10 11:48:17;;;;;;;33.60;19.93;;;11.20;99.90;;;;;;5074389;28;20391;-53
2021/11/10 11:50:43;;;;;;;34.20;19.27;;;11.30;99.90;;;;;;5091949;28;20382;-53
2021/11/10 11:53:12;;;;;;;28.80;18.87;;;11.40;99.90;;;;;;5092830;28;20382;-53
2021/11/10 11:55:55;;;;;;;32.22;20.20;;;11.70;99.90;;;;;;5091738;28;20425;-54
2021/11/10 11:58:24;;;;;;;35.25;18.73;;;11.70;99.90;;;;;;5093018;28;20389;-53
2021/11/10 12:01:03;;;;;;;30.50;19.63;;;11.50;99.90;;;;;;5090161;28;20448;-53
2021/11/10 12:03:44;;;;;;;37.50;20.33;;;11.60;99.90;;;;;;5085515;28;20476;-53
2021/11/10 12:06:10;;;;;;;29.50;18.85;;;11.50;99.90;;;;;;5073285;28;20386;-53
2021/11/10 12:08:35;;;;;;;34.60;20.52;;;11.50;99.90;;;;;;5092051;28;20788;-55
2021/11/10 12:11:21;;;;;;;32.70;19.05;;;11.10;99.90;;;;;;5091512;28;20491;-53
2021/11/10 12:13:59;;;;;;;30.05;19.13;;;12.40;99.90;;;;;;5082418;28;20785;-53
2021/11/10 12:16:25;;;;;;;34.58;19.38;;;12.20;99.90;;;;;;5071790;28;20379;-53
2021/11/10 12:18:57;;;;;;;30.90;18.20;;;12.10;99.90;;;;;;5071043;28;20410;-52
2021/11/10 12:21:31;;;;;;;31.30;19.70;;;12.40;99.90;;;;;;5038635;28;20490;-53
2021/11/10 12:24:04;;;;;;;34.00;19.70;;;12.40;99.90;;;;;;5080695;28;20581;-53
2021/11/10 12:26:29;;;;;;;33.40;20.85;;;11.60;99.90;;;;;;5085536;28;21251;-54
2021/11/10 12:29:00;;;;;;;31.60;18.80;;;12.20;99.90;;;;;;5080820;28;21225;-54
2021/11/10 12:31:38;;;;;;;31.48;18.60;;;12.10;99.90;;;;;;5065379;28;20407;-54
2021/11/10 12:34:25;;;;;;;52.87;23.30;;;11.90;99.90;;;;;;5084526;28;20439;-53
2021/11/10 12:37:00;;;;;;;38.72;19.73;;;11.90;99.90;;;;;;5068961;28;20901;-53
2021/11/10 12:39:33;;;;;;;33.72;19.75;;;11.90;99.90;;;;;;5082343;28;20388;-53